Time;durP1;ratioP1;P1;durP2;ratioP2;P2;SDS_P1;SDS_P2;PMS_P1;PMS_P2;Temp;Humidity;BMP_temperature;BMP_pressure;BME280_temperature;BME280_humidity;BME280_pressure;Samples;Min_cycle;Max_cycle;Signal;HPM_P1;HPM_P2
2023/06/21 00:01:38;;;;;;;3.92;2.97;;;;;;;;;;5101219;28;20606;-78
2023/06/21 00:04:05;;;;;;;6.03;3.22;;;;;;;;;;5103714;28;20024;-79
2023/06/21 00:06:34;;;;;;;4.65;3.00;;;;;;;;;;5101580;28;20027;-79
2023/06/21 00:09:03;;;;;;;4.15;3.30;;;;;;;;;;5106646;28;20022;-78
2023/06/21 00:11:29;;;;;;;3.95;3.42;;;;;;;;;;5091515;28;20036;-78
2023/06/21 00:13:55;;;;;;;8.35;3.13;;;;;;;;;;5103841;28;20426;-78
2023/06/21 00:16:22;;;;;;;4.28;3.30;;;;;;;;;;5106003;28;20847;-78
2023/06/21 00:18:48;;;;;;;4.68;3.03;;;;;;;;;;5093605;28;20027;-77
2023/06/21 00:21:15;;;;;;;4.30;3.05;;;;;;;;;;5105637;28;20049;-78
2023/06/21 00:23:44;;;;;;;3.92;2.90;;;;;;;;;;5102178;28;20024;-78
2023/06/21 00:26:10;;;;;;;5.18;3.28;;;;;;;;;;5101819;28;20031;-78
2023/06/21 00:28:36;;;;;;;3.92;2.95;;;;;;;;;;5102939;28;20114;-77
2023/06/21 00:31:03;;;;;;;3.72;2.75;;;;;;;;;;5094662;28;20111;-77
2023/06/21 00:33:29;;;;;;;4.47;3.10;;;;;;;;;;5093003;28;20027;-78
2023/06/21 00:35:55;;;;;;;5.45;3.05;;;;;;;;;;5093716;28;20020;-78
2023/06/21 00:38:21;;;;;;;4.85;4.03;;;;;;;;;;5110100;28;20540;-78
2023/06/21 00:40:49;;;;;;;4.53;3.08;;;;;;;;;;5097337;28;20429;-78
2023/06/21 00:43:16;;;;;;;4.00;3.10;;;;;;;;;;5098486;28;20031;-79
2023/06/21 00:45:48;;;;;;;6.35;3.47;;;;;;;;;;5109734;28;20037;-78
2023/06/21 00:48:14;;;;;;;4.65;3.10;;;;;;;;;;5103936;28;20088;-77
2023/06/21 00:50:40;;;;;;;4.10;3.17;;;;;;;;;;5090725;28;20019;-77
2023/06/21 00:53:07;;;;;;;4.95;3.28;;;;;;;;;;5106878;28;20032;-78
2023/06/21 00:55:33;;;;;;;6.00;3.33;;;;;;;;;;5111106;28;20035;-78
2023/06/21 00:57:59;;;;;;;5.50;3.55;;;;;;;;;;5098224;28;20374;-78
2023/06/21 01:00:25;;;;;;;4.30;3.20;;;;;;;;;;5105168;28;20020;-78
2023/06/21 01:02:53;;;;;;;4.55;3.25;;;;;;;;;;5081724;28;20047;-78
2023/06/21 01:05:20;;;;;;;6.43;3.30;;;;;;;;;;5099784;28;20149;-78
2023/06/21 01:08:05;;;;;;;5.72;4.03;;;;;;;;;;5105966;28;20034;-77
2023/06/21 01:10:54;;;;;;;4.73;3.03;;;;;;;;;;5091304;28;20054;-79
2023/06/21 01:13:33;;;;;;;4.95;3.45;;;;;;;;;;5104476;28;20342;-77
2023/06/21 01:16:13;;;;;;;6.25;3.35;;;;;;;;;;5086351;28;20396;-78
2023/06/21 01:18:40;;;;;;;4.70;3.10;;;;;;;;;;5079219;28;20053;-78
2023/06/21 01:21:06;;;;;;;4.53;3.65;;;;;;;;;;5119758;28;20042;-78
2023/06/21 01:23:52;;;;;;;4.93;3.88;;;;;;;;;;5115752;28;20034;-78
2023/06/21 01:26:24;;;;;;;5.95;3.80;;;;;;;;;;5111130;28;20650;-78
2023/06/21 01:28:57;;;;;;;4.90;3.60;;;;;;;;;;5111920;28;20095;-79
2023/06/21 01:31:24;;;;;;;8.77;4.18;;;;;;;;;;5109294;28;20171;-78
2023/06/21 01:33:50;;;;;;;6.18;3.63;;;;;;;;;;5095250;28;20024;-77
2023/06/21 01:36:17;;;;;;;4.70;3.30;;;;;;;;;;5105199;28;20027;-78
2023/06/21 01:38:44;;;;;;;4.75;3.78;;;;;;;;;;5097989;28;20036;-78
2023/06/21 01:41:12;;;;;;;4.20;3.47;;;;;;;;;;5112297;28;20042;-78
2023/06/21 01:43:38;;;;;;;4.28;3.75;;;;;;;;;;5101658;28;20405;-78
2023/06/21 01:46:06;;;;;;;5.85;3.90;;;;;;;;;;5099670;28;20027;-77
2023/06/21 01:48:33;;;;;;;5.20;3.47;;;;;;;;;;5111281;28;20034;-79
2023/06/21 01:51:01;;;;;;;5.35;3.83;;;;;;;;;;5110054;28;20412;-78
2023/06/21 01:53:27;;;;;;;7.75;3.97;;;;;;;;;;5093271;28;20693;-79
2023/06/21 01:55:56;;;;;;;6.47;4.18;;;;;;;;;;5105330;27;20028;-78
2023/06/21 01:58:23;;;;;;;4.97;3.83;;;;;;;;;;5100710;28;20089;-77
2023/06/21 02:00:49;;;;;;;5.03;3.67;;;;;;;;;;5101279;28;20460;-78
2023/06/21 02:03:16;;;;;;;5.82;4.07;;;;;;;;;;5103490;27;20072;-78
2023/06/21 02:05:43;;;;;;;4.15;3.50;;;;;;;;;;5097931;28;20035;-78
2023/06/21 02:08:15;;;;;;;5.72;4.03;;;;;;;;;;5099352;28;20036;-78
2023/06/21 02:10:42;;;;;;;5.28;3.90;;;;;;;;;;5103765;28;20016;-78
2023/06/21 02:13:08;;;;;;;4.95;3.72;;;;;;;;;;5099452;28;20027;-77
2023/06/21 02:15:35;;;;;;;5.97;3.85;;;;;;;;;;5095454;28;20024;-77
2023/06/21 02:18:01;;;;;;;4.35;3.90;;;;;;;;;;5097368;28;20027;-78
2023/06/21 02:20:28;;;;;;;5.95;3.65;;;;;;;;;;5095955;28;20023;-78
2023/06/21 02:22:54;;;;;;;4.43;4.00;;;;;;;;;;5099589;28;20027;-78
2023/06/21 02:25:22;;;;;;;5.43;3.45;;;;;;;;;;5098922;28;20035;-78
2023/06/21 02:27:48;;;;;;;7.68;3.63;;;;;;;;;;5104506;28;20106;-78
2023/06/21 02:30:14;;;;;;;6.70;4.18;;;;;;;;;;5094188;28;20027;-77
2023/06/21 02:32:40;;;;;;;5.55;3.97;;;;;;;;;;5092171;28;20060;-77
2023/06/21 02:35:06;;;;;;;4.10;3.70;;;;;;;;;;5100026;28;20036;-78
2023/06/21 02:37:33;;;;;;;4.10;3.40;;;;;;;;;;5088355;27;20023;-77
2023/06/21 02:39:59;;;;;;;5.47;4.03;;;;;;;;;;5097629;28;20217;-78
2023/06/21 02:42:29;;;;;;;5.30;3.85;;;;;;;;;;5093776;28;20024;-80
2023/06/21 02:44:55;;;;;;;7.20;4.13;;;;;;;;;;5093475;28;20032;-78
2023/06/21 02:47:21;;;;;;;6.30;4.10;;;;;;;;;;5096597;28;20039;-78
2023/06/21 02:49:47;;;;;;;5.63;3.60;;;;;;;;;;5108988;28;20042;-78
2023/06/21 02:52:14;;;;;;;5.45;3.40;;;;;;;;;;5111588;28;20039;-78
2023/06/21 02:54:40;;;;;;;5.93;3.88;;;;;;;;;;5104140;28;20552;-79
2023/06/21 02:57:06;;;;;;;6.10;4.18;;;;;;;;;;5100775;28;20031;-78
2023/06/21 02:59:32;;;;;;;6.97;3.97;;;;;;;;;;5101809;28;20786;-78
2023/06/21 03:02:00;;;;;;;6.78;4.32;;;;;;;;;;5104963;27;20101;-78
2023/06/21 03:04:26;;;;;;;5.85;4.13;;;;;;;;;;5102980;28;20054;-79
2023/06/21 03:06:52;;;;;;;5.50;3.95;;;;;;;;;;5085314;28;20446;-78
2023/06/21 03:09:18;;;;;;;4.80;3.88;;;;;;;;;;5114558;28;20043;-78
2023/06/21 03:11:46;;;;;;;6.18;4.55;;;;;;;;;;5102968;28;20030;-78
2023/06/21 03:14:12;;;;;;;5.90;3.67;;;;;;;;;;5097868;28;20520;-78
2023/06/21 03:16:38;;;;;;;5.75;4.32;;;;;;;;;;5105391;28;20032;-77
2023/06/21 03:19:10;;;;;;;6.82;4.20;;;;;;;;;;5102216;28;20027;-79
2023/06/21 03:21:36;;;;;;;6.22;4.05;;;;;;;;;;5107631;27;20050;-79
2023/06/21 03:24:03;;;;;;;6.88;4.20;;;;;;;;;;5109838;27;20031;-78
2023/06/21 03:26:29;;;;;;;7.25;4.40;;;;;;;;;;5115200;27;20023;-78
2023/06/21 03:28:57;;;;;;;7.88;4.35;;;;;;;;;;5089794;28;20076;-78
2023/06/21 03:31:23;;;;;;;8.43;4.40;;;;;;;;;;5089067;28;20028;-77
2023/06/21 03:33:49;;;;;;;7.18;4.88;;;;;;;;;;5105385;28;20035;-77
2023/06/21 03:36:15;;;;;;;5.63;3.90;;;;;;;;;;5103303;28;20027;-78
2023/06/21 03:38:41;;;;;;;7.80;4.93;;;;;;;;;;5105462;27;20043;-78
2023/06/21 03:41:07;;;;;;;6.47;4.40;;;;;;;;;;5093236;28;20032;-77
2023/06/21 03:43:33;;;;;;;6.82;4.43;;;;;;;;;;5115696;28;20023;-77
2023/06/21 03:46:00;;;;;;;8.98;4.82;;;;;;;;;;5098158;28;20073;-78
2023/06/21 03:48:26;;;;;;;8.75;5.03;;;;;;;;;;5111293;27;20515;-78
2023/06/21 03:50:52;;;;;;;7.60;4.50;;;;;;;;;;5107241;28;20035;-77
2023/06/21 03:53:19;;;;;;;6.25;4.40;;;;;;;;;;5116518;28;20070;-78
2023/06/21 03:55:45;;;;;;;8.20;4.65;;;;;;;;;;5119645;27;20059;-78
2023/06/21 03:58:12;;;;;;;6.70;4.60;;;;;;;;;;5108240;28;20020;-78
2023/06/21 04:00:38;;;;;;;7.35;4.65;;;;;;;;;;5106350;28;20023;-78
2023/06/21 04:03:04;;;;;;;6.65;4.32;;;;;;;;;;5107806;27;20027;-77
2023/06/21 04:05:30;;;;;;;6.82;5.13;;;;;;;;;;5107463;28;20024;-77
2023/06/21 04:07:58;;;;;;;7.32;5.22;;;;;;;;;;5117378;28;20025;-77
2023/06/21 04:10:25;;;;;;;7.72;4.68;;;;;;;;;;5091986;28;20061;-77
2023/06/21 04:12:51;;;;;;;8.18;5.20;;;;;;;;;;5107995;28;20031;-77
2023/06/21 04:15:17;;;;;;;8.55;5.03;;;;;;;;;;5112808;28;20019;-78
2023/06/21 04:17:43;;;;;;;7.78;5.25;;;;;;;;;;5107841;28;20030;-77
2023/06/21 04:20:15;;;;;;;8.50;5.35;;;;;;;;;;5099403;28;20069;-77
2023/06/21 04:22:41;;;;;;;7.85;5.13;;;;;;;;;;5115215;28;20058;-77
2023/06/21 04:25:08;;;;;;;9.15;5.18;;;;;;;;;;5116427;28;20033;-77
2023/06/21 04:27:34;;;;;;;6.25;5.10;;;;;;;;;;5106629;28;20056;-76
2023/06/21 04:30:01;;;;;;;7.50;5.25;;;;;;;;;;5106410;28;20027;-77
2023/06/21 04:32:32;;;;;;;9.25;5.20;;;;;;;;;;5100821;28;20028;-77
2023/06/21 04:34:59;;;;;;;7.38;5.40;;;;;;;;;;5105197;28;20019;-78
2023/06/21 04:37:25;;;;;;;8.38;4.97;;;;;;;;;;5100754;28;20099;-78
2023/06/21 04:39:52;;;;;;;7.55;5.35;;;;;;;;;;5103273;28;20066;-76
2023/06/21 04:42:21;;;;;;;7.65;5.13;;;;;;;;;;5110926;28;20039;-77
2023/06/21 04:44:51;;;;;;;7.15;5.22;;;;;;;;;;5108125;28;20028;-77
2023/06/21 04:47:17;;;;;;;11.32;4.72;;;;;;;;;;5101142;28;20066;-77
2023/06/21 04:49:44;;;;;;;6.03;4.90;;;;;;;;;;5115364;28;20028;-77
2023/06/21 04:52:12;;;;;;;8.75;6.07;;;;;;;;;;5117678;28;20103;-78
2023/06/21 04:54:38;;;;;;;7.82;5.30;;;;;;;;;;5102463;28;20060;-77
2023/06/21 04:57:05;;;;;;;8.75;5.50;;;;;;;;;;5116022;28;20031;-77
2023/06/21 04:59:31;;;;;;;7.15;5.15;;;;;;;;;;5110023;28;20020;-77
2023/06/21 05:01:57;;;;;;;9.10;5.47;;;;;;;;;;5095415;28;20126;-77
2023/06/21 05:04:23;;;;;;;19.17;5.50;;;;;;;;;;5102846;28;20031;-77
2023/06/21 05:06:49;;;;;;;8.18;6.78;;;;;;;;;;5105534;28;20057;-78
2023/06/21 05:09:15;;;;;;;7.60;5.20;;;;;;;;;;5102374;28;20477;-77
2023/06/21 05:11:42;;;;;;;8.40;6.40;;;;;;;;;;5107077;28;20016;-77
2023/06/21 05:14:08;;;;;;;8.45;5.97;;;;;;;;;;5099959;28;20111;-78
2023/06/21 05:16:34;;;;;;;9.50;5.82;;;;;;;;;;5098804;28;20020;-77
2023/06/21 05:19:00;;;;;;;9.07;5.43;;;;;;;;;;5101245;28;20034;-76
2023/06/21 05:21:26;;;;;;;8.73;5.93;;;;;;;;;;5096864;28;20047;-78
2023/06/21 05:23:53;;;;;;;6.60;5.43;;;;;;;;;;5097021;28;20028;-77
2023/06/21 05:26:19;;;;;;;8.30;5.38;;;;;;;;;;5102655;28;20664;-78
2023/06/21 05:28:45;;;;;;;7.78;5.35;;;;;;;;;;5108814;27;20023;-78
2023/06/21 05:31:11;;;;;;;9.55;5.45;;;;;;;;;;5102364;28;20093;-77
2023/06/21 05:33:37;;;;;;;6.25;4.85;;;;;;;;;;5097683;28;20466;-77
2023/06/21 05:36:03;;;;;;;8.20;5.18;;;;;;;;;;5101761;28;20027;-78
2023/06/21 05:38:29;;;;;;;9.13;6.10;;;;;;;;;;5093522;28;20446;-79
2023/06/21 05:40:55;;;;;;;7.70;4.80;;;;;;;;;;5102976;28;20066;-78
2023/06/21 05:43:21;;;;;;;8.70;5.70;;;;;;;;;;5101355;28;20397;-77
2023/06/21 05:45:47;;;;;;;8.10;5.03;;;;;;;;;;5103320;28;20085;-77
2023/06/21 05:48:13;;;;;;;7.55;5.05;;;;;;;;;;5098025;28;20024;-77
2023/06/21 05:50:39;;;;;;;8.20;5.28;;;;;;;;;;5089345;28;20393;-78
2023/06/21 05:53:06;;;;;;;11.05;5.22;;;;;;;;;;5102581;28;20039;-76
2023/06/21 05:55:32;;;;;;;6.43;5.22;;;;;;;;;;5099146;28;20099;-77
2023/06/21 05:57:58;;;;;;;6.78;5.78;;;;;;;;;;5100196;28;20016;-78
2023/06/21 06:00:24;;;;;;;10.73;5.45;;;;;;;;;;5100693;28;20028;-78
2023/06/21 06:02:50;;;;;;;7.90;5.53;;;;;;;;;;5098276;28;20038;-78
2023/06/21 06:05:18;;;;;;;10.02;5.80;;;;;;;;;;5098080;28;20557;-77
2023/06/21 06:07:44;;;;;;;7.93;5.65;;;;;;;;;;5099826;28;20028;-77
2023/06/21 06:10:10;;;;;;;10.25;5.28;;;;;;;;;;5100957;28;20028;-77
2023/06/21 06:12:36;;;;;;;8.93;5.22;;;;;;;;;;5095925;28;20075;-77
2023/06/21 06:15:02;;;;;;;7.40;5.05;;;;;;;;;;5093268;28;20020;-77
2023/06/21 06:17:30;;;;;;;6.93;4.70;;;;;;;;;;5097638;28;20027;-77
2023/06/21 06:19:56;;;;;;;6.75;5.03;;;;;;;;;;5099326;28;20015;-79
2023/06/21 06:22:22;;;;;;;6.15;4.78;;;;;;;;;;5102338;28;20028;-78
2023/06/21 06:24:49;;;;;;;9.07;5.03;;;;;;;;;;5097861;28;20084;-78
2023/06/21 06:27:16;;;;;;;12.00;5.00;;;;;;;;;;5102593;28;20397;-78
2023/06/21 06:29:42;;;;;;;8.35;5.07;;;;;;;;;;5096638;28;20036;-77
2023/06/21 06:32:08;;;;;;;6.22;4.78;;;;;;;;;;5086644;28;20030;-79
2023/06/21 06:34:35;;;;;;;8.98;5.60;;;;;;;;;;5094265;28;20032;-79
2023/06/21 06:37:01;;;;;;;6.93;5.28;;;;;;;;;;5096347;28;20028;-78
2023/06/21 06:39:27;;;;;;;8.98;4.78;;;;;;;;;;5083108;28;20158;-78
2023/06/21 06:41:53;;;;;;;8.35;5.35;;;;;;;;;;5100909;28;20028;-79
2023/06/21 06:44:19;;;;;;;7.45;5.13;;;;;;;;;;5098734;28;20039;-79
2023/06/21 06:46:45;;;;;;;8.52;5.07;;;;;;;;;;5104508;28;20024;-78
2023/06/21 06:49:11;;;;;;;8.90;5.32;;;;;;;;;;5101622;28;20093;-77
2023/06/21 06:51:37;;;;;;;7.03;4.82;;;;;;;;;;5100931;28;20027;-80
2023/06/21 06:54:03;;;;;;;7.68;5.00;;;;;;;;;;5100973;28;20039;-78
2023/06/21 06:56:29;;;;;;;8.02;5.97;;;;;;;;;;5088262;27;20039;-78
2023/06/21 06:58:55;;;;;;;8.63;4.55;;;;;;;;;;5096228;28;20047;-78
2023/06/21 07:01:22;;;;;;;5.65;4.63;;;;;;;;;;5094665;28;20542;-80
2023/06/21 07:03:48;;;;;;;7.88;4.78;;;;;;;;;;5093728;28;20039;-78
2023/06/21 07:06:14;;;;;;;10.35;5.75;;;;;;;;;;5090715;28;20036;-77
2023/06/21 07:08:44;;;;;;;9.85;5.25;;;;;;;;;;5092522;28;20081;-78
2023/06/21 07:11:10;;;;;;;8.30;5.40;;;;;;;;;;5096020;28;20048;-78
2023/06/21 07:13:36;;;;;;;7.55;4.72;;;;;;;;;;5094442;28;20056;-78
2023/06/21 07:16:02;;;;;;;7.07;5.22;;;;;;;;;;5094876;28;20038;-79
2023/06/21 07:18:28;;;;;;;7.38;5.13;;;;;;;;;;5091038;28;20024;-78
2023/06/21 07:20:54;;;;;;;6.18;4.55;;;;;;;;;;5080153;28;20044;-78
2023/06/21 07:23:21;;;;;;;6.97;4.40;;;;;;;;;;5098342;28;20069;-80
2023/06/21 07:25:47;;;;;;;14.75;5.55;;;;;;;;;;5095827;28;20535;-78
2023/06/21 07:28:13;;;;;;;6.70;5.22;;;;;;;;;;5090732;28;20269;-78
2023/06/21 07:30:39;;;;;;;7.38;4.60;;;;;;;;;;5096765;28;20835;-78
2023/06/21 07:33:08;;;;;;;10.10;5.53;;;;;;;;;;5072974;28;20084;-77
2023/06/21 07:35:34;;;;;;;6.07;4.47;;;;;;;;;;5075097;28;20020;-78
2023/06/21 07:38:00;;;;;;;6.95;4.97;;;;;;;;;;5091865;28;20020;-78
2023/06/21 07:40:26;;;;;;;6.57;5.03;;;;;;;;;;5094938;28;20131;-76
2023/06/21 07:42:52;;;;;;;8.88;5.20;;;;;;;;;;5087780;28;20586;-78
2023/06/21 07:45:18;;;;;;;7.32;4.80;;;;;;;;;;5088568;28;20027;-77
2023/06/21 07:47:45;;;;;;;7.20;4.65;;;;;;;;;;5092065;28;20031;-77
2023/06/21 07:50:11;;;;;;;10.10;4.85;;;;;;;;;;5096854;27;20028;-78
2023/06/21 07:52:37;;;;;;;6.15;5.20;;;;;;;;;;5098935;28;20198;-77
2023/06/21 07:55:05;;;;;;;7.03;5.28;;;;;;;;;;5102587;28;20043;-77
2023/06/21 07:57:32;;;;;;;8.55;6.05;;;;;;;;;;5103227;28;20110;-78
2023/06/21 08:00:05;;;;;;;7.60;4.88;;;;;;;;;;5093704;28;20036;-79
2023/06/21 08:02:31;;;;;;;8.88;5.40;;;;;;;;;;5105175;28;20020;-79
2023/06/21 08:04:57;;;;;;;6.40;5.05;;;;;;;;;;5097427;28;20024;-77
2023/06/21 08:07:23;;;;;;;7.20;5.13;;;;;;;;;;5105976;28;20015;-78
2023/06/21 08:09:49;;;;;;;7.63;4.97;;;;;;;;;;5107787;28;20131;-77
2023/06/21 08:12:16;;;;;;;5.53;4.90;;;;;;;;;;5117244;28;20035;-78
2023/06/21 08:14:42;;;;;;;7.07;5.03;;;;;;;;;;5120925;28;20015;-78
2023/06/21 08:17:08;;;;;;;5.85;4.60;;;;;;;;;;5111067;28;20069;-77
2023/06/21 08:19:34;;;;;;;5.20;4.20;;;;;;;;;;5109750;28;20036;-79
2023/06/21 08:22:00;;;;;;;7.40;4.95;;;;;;;;;;5111325;28;20846;-78
2023/06/21 08:24:27;;;;;;;7.85;4.32;;;;;;;;;;5103932;27;20071;-79
2023/06/21 08:26:53;;;;;;;5.43;4.57;;;;;;;;;;5106343;28;20269;-80
2023/06/21 08:29:19;;;;;;;9.18;4.13;;;;;;;;;;5096533;28;20034;-79
2023/06/21 08:31:45;;;;;;;6.90;4.90;;;;;;;;;;5103872;28;20031;-80
2023/06/21 08:34:11;;;;;;;6.00;4.57;;;;;;;;;;5098570;28;20093;-80
2023/06/21 08:36:38;;;;;;;8.57;5.07;;;;;;;;;;5096618;28;20050;-80
2023/06/21 08:39:05;;;;;;;7.00;4.82;;;;;;;;;;5084572;28;20058;-80
2023/06/21 08:41:31;;;;;;;6.22;5.30;;;;;;;;;;5106124;28;20012;-81
2023/06/21 08:43:57;;;;;;;5.65;4.65;;;;;;;;;;5096726;28;20039;-78
2023/06/21 08:46:27;;;;;;;8.68;4.95;;;;;;;;;;5090682;28;20026;-79
2023/06/21 08:48:55;;;;;;;6.70;4.30;;;;;;;;;;5104053;28;20081;-79
2023/06/21 08:51:22;;;;;;;7.22;5.60;;;;;;;;;;5080390;28;20499;-80
2023/06/21 08:53:56;;;;;;;7.00;5.30;;;;;;;;;;5085961;28;20028;-81
2023/06/21 08:56:23;;;;;;;7.17;4.53;;;;;;;;;;5099646;28;21781;-81
2023/06/21 08:58:57;;;;;;;6.97;4.38;;;;;;;;;;5094043;28;20034;-79
2023/06/21 09:01:24;;;;;;;5.30;4.30;;;;;;;;;;5101738;28;20481;-82
2023/06/21 09:03:57;;;;;;;6.13;4.05;;;;;;;;;;5089231;28;20064;-83
2023/06/21 09:06:24;;;;;;;5.55;4.53;;;;;;;;;;5099225;28;20031;-80
2023/06/21 09:08:54;;;;;;;5.78;4.53;;;;;;;;;;5093079;28;20032;-83
2023/06/21 09:11:23;;;;;;;8.13;4.30;;;;;;;;;;5089423;28;20051;-82
2023/06/21 09:13:50;;;;;;;5.55;4.15;;;;;;;;;;5092465;28;20028;-85
2023/06/21 09:16:16;;;;;;;7.60;4.65;;;;;;;;;;5099615;28;20027;-84
2023/06/21 09:18:44;;;;;;;7.88;4.90;;;;;;;;;;5089873;28;20020;-79
2023/06/21 09:21:10;;;;;;;5.90;4.35;;;;;;;;;;5094384;28;20439;-82
2023/06/21 09:23:38;;;;;;;5.55;4.55;;;;;;;;;;5071861;28;20675;-78
2023/06/21 09:26:04;;;;;;;7.53;4.85;;;;;;;;;;5090664;28;20042;-80
2023/06/21 09:28:30;;;;;;;5.10;4.20;;;;;;;;;;5096060;28;20066;-80
2023/06/21 09:30:57;;;;;;;5.43;4.45;;;;;;;;;;5087097;28;20418;-81
2023/06/21 09:33:26;;;;;;;5.28;4.22;;;;;;;;;;5088765;28;20035;-80
2023/06/21 09:35:52;;;;;;;8.13;4.50;;;;;;;;;;5071218;28;20055;-81
2023/06/21 09:38:32;;;;;;;6.20;4.53;;;;;;;;;;5089267;28;20081;-80
2023/06/21 09:41:00;;;;;;;5.30;3.72;;;;;;;;;;5092957;28;20039;-81
2023/06/21 09:43:26;;;;;;;7.25;4.60;;;;;;;;;;5093365;28;20027;-85
2023/06/21 09:46:18;;;;;;;5.38;4.50;;;;;;;;;;5093900;28;20031;-80
2023/06/21 09:48:45;;;;;;;5.95;4.45;;;;;;;;;;5081746;28;20036;-80
2023/06/21 09:51:12;;;;;;;5.20;4.70;;;;;;;;;;5086352;28;20028;-78
2023/06/21 09:53:42;;;;;;;6.05;4.45;;;;;;;;;;5085409;28;20028;-79
2023/06/21 09:56:08;;;;;;;5.28;4.53;;;;;;;;;;5090778;28;20027;-80
2023/06/21 09:58:35;;;;;;;6.57;4.45;;;;;;;;;;5094625;28;20488;-83
2023/06/21 10:01:08;;;;;;;5.30;4.60;;;;;;;;;;5079092;28;20019;-81
2023/06/21 10:03:34;;;;;;;5.40;4.22;;;;;;;;;;5094428;27;20027;-83
2023/06/21 10:06:01;;;;;;;6.20;4.25;;;;;;;;;;5096681;28;20028;-81
2023/06/21 10:08:28;;;;;;;6.68;4.90;;;;;;;;;;5090211;28;20047;-80
2023/06/21 10:10:55;;;;;;;7.45;4.68;;;;;;;;;;5087995;28;20034;-82
2023/06/21 10:13:28;;;;;;;5.72;4.57;;;;;;;;;;5091572;28;20047;-83
2023/06/21 10:15:55;;;;;;;7.47;4.82;;;;;;;;;;5088181;28;20044;-81
2023/06/21 10:18:22;;;;;;;5.30;4.40;;;;;;;;;;5089086;28;20019;-82
2023/06/21 10:20:56;;;;;;;5.63;4.22;;;;;;;;;;5088267;28;20161;-83
2023/06/21 10:23:23;;;;;;;4.97;4.22;;;;;;;;;;5087012;28;20023;-80
2023/06/21 10:25:51;;;;;;;5.70;4.50;;;;;;;;;;5091679;28;20027;-81
2023/06/21 10:28:20;;;;;;;5.15;4.20;;;;;;;;;;5092148;27;20023;-82
2023/06/21 10:30:47;;;;;;;7.70;4.95;;;;;;;;;;5082745;28;20024;-82
2023/06/21 10:33:16;;;;;;;5.97;4.88;;;;;;;;;;5076052;28;20387;-79
2023/06/21 10:35:45;;;;;;;5.68;4.05;;;;;;;;;;5089820;28;20024;-81
2023/06/21 10:38:30;;;;;;;5.22;4.18;;;;;;;;;;5090627;28;20020;-82
2023/06/21 10:40:56;;;;;;;6.53;4.25;;;;;;;;;;5086669;28;20036;-82
2023/06/21 10:43:24;;;;;;;5.22;4.30;;;;;;;;;;5088075;28;20035;-84
2023/06/21 10:45:50;;;;;;;4.80;4.00;;;;;;;;;;5091905;28;20603;-82
2023/06/21 10:48:16;;;;;;;5.80;4.65;;;;;;;;;;5093180;28;20028;-85
2023/06/21 10:50:43;;;;;;;5.03;4.20;;;;;;;;;;5092562;28;20055;-82
2023/06/21 10:53:09;;;;;;;5.22;4.20;;;;;;;;;;5089141;28;20024;-81
2023/06/21 10:55:39;;;;;;;4.57;3.85;;;;;;;;;;5086602;28;20054;-81
2023/06/21 10:58:06;;;;;;;5.65;4.20;;;;;;;;;;5093275;28;20020;-83
2023/06/21 11:00:32;;;;;;;5.13;4.43;;;;;;;;;;5088385;28;20489;-81
2023/06/21 11:02:58;;;;;;;5.18;4.40;;;;;;;;;;5093565;28;20389;-79
2023/06/21 11:05:28;;;;;;;4.95;3.90;;;;;;;;;;5099937;28;20496;-79
2023/06/21 11:08:05;;;;;;;4.93;4.10;;;;;;;;;;5098588;28;20031;-84
2023/06/21 11:10:31;;;;;;;5.47;4.50;;;;;;;;;;5092159;28;20024;-80
2023/06/21 11:12:58;;;;;;;4.82;3.35;;;;;;;;;;5092219;28;20028;-80
2023/06/21 11:15:27;;;;;;;5.90;4.32;;;;;;;;;;5090016;28;20032;-80
2023/06/21 11:18:06;;;;;;;5.22;3.92;;;;;;;;;;5094206;28;20039;-81
2023/06/21 11:20:43;;;;;;;6.40;4.10;;;;;;;;;;5098765;28;20023;-79
2023/06/21 11:23:09;;;;;;;5.15;3.95;;;;;;;;;;5109762;28;20040;-81
2023/06/21 11:25:36;;;;;;;5.20;4.00;;;;;;;;;;5114089;28;20381;-79
2023/06/21 11:28:20;;;;;;;4.75;4.22;;;;;;;;;;5108838;28;20047;-77
2023/06/21 11:31:02;;;;;;;4.15;3.72;;;;;;;;;;5106409;28;20032;-77
2023/06/21 11:33:33;;;;;;;5.90;4.15;;;;;;;;;;5090083;28;21418;-81
2023/06/21 11:36:03;;;;;;;5.10;4.28;;;;;;;;;;5093466;28;20020;-78
2023/06/21 11:38:29;;;;;;;5.25;4.00;;;;;;;;;;5090854;28;20304;-78
2023/06/21 11:40:56;;;;;;;4.85;3.70;;;;;;;;;;5090600;28;20020;-78
2023/06/21 11:43:22;;;;;;;7.80;5.15;;;;;;;;;;5090534;28;20032;-79
2023/06/21 11:45:56;;;;;;;5.25;3.85;;;;;;;;;;5087963;28;20028;-77
2023/06/21 11:48:25;;;;;;;5.45;4.18;;;;;;;;;;5089522;28;20058;-77
2023/06/21 11:50:52;;;;;;;4.43;4.00;;;;;;;;;;5090431;28;20118;-79
2023/06/21 11:53:26;;;;;;;6.70;3.95;;;;;;;;;;5088699;28;20635;-77
2023/06/21 11:55:53;;;;;;;5.03;3.95;;;;;;;;;;5088648;28;20493;-78
2023/06/21 11:58:19;;;;;;;4.03;3.45;;;;;;;;;;5090548;28;20035;-78
2023/06/21 12:00:46;;;;;;;4.03;3.63;;;;;;;;;;5092512;28;20386;-77
2023/06/21 12:03:13;;;;;;;4.25;3.80;;;;;;;;;;5089066;28;20024;-79
2023/06/21 12:05:47;;;;;;;5.10;4.10;;;;;;;;;;5093216;28;20031;-78
2023/06/21 12:08:14;;;;;;;5.32;4.15;;;;;;;;;;5086424;28;20045;-77
2023/06/21 12:10:40;;;;;;;4.28;3.60;;;;;;;;;;5071430;28;20780;-79
2023/06/21 12:13:06;;;;;;;5.00;3.83;;;;;;;;;;5090555;28;20032;-78
2023/06/21 12:15:33;;;;;;;6.28;4.25;;;;;;;;;;5089572;28;20110;-78
2023/06/21 12:17:59;;;;;;;4.72;4.18;;;;;;;;;;5091167;28;20031;-77
2023/06/21 12:20:25;;;;;;;7.50;3.92;;;;;;;;;;5087282;28;20251;-77
2023/06/21 12:22:51;;;;;;;4.30;3.85;;;;;;;;;;5090229;28;20532;-77
2023/06/21 12:25:17;;;;;;;4.10;3.58;;;;;;;;;;5091806;28;20027;-77
2023/06/21 12:27:59;;;;;;;4.40;3.80;;;;;;;;;;5087851;28;20578;-78
2023/06/21 12:30:28;;;;;;;5.75;3.70;;;;;;;;;;5089946;28;20461;-78
2023/06/21 12:32:55;;;;;;;4.38;3.97;;;;;;;;;;5093404;28;20024;-78
2023/06/21 12:35:21;;;;;;;5.95;4.13;;;;;;;;;;5088648;28;20031;-77
2023/06/21 12:37:48;;;;;;;5.00;3.70;;;;;;;;;;5085873;28;20032;-77
2023/06/21 12:40:17;;;;;;;3.78;3.10;;;;;;;;;;5083428;28;20127;-77
2023/06/21 12:42:46;;;;;;;6.13;4.20;;;;;;;;;;5085605;28;20047;-77
2023/06/21 12:45:19;;;;;;;4.72;3.72;;;;;;;;;;5087914;28;20491;-77
2023/06/21 12:47:49;;;;;;;5.60;3.95;;;;;;;;;;5086991;28;20027;-80
2023/06/21 12:50:20;;;;;;;4.57;3.60;;;;;;;;;;5090025;28;20031;-78
2023/06/21 12:52:46;;;;;;;5.50;4.20;;;;;;;;;;5090038;28;20034;-82
2023/06/21 12:55:16;;;;;;;4.80;3.97;;;;;;;;;;5074115;28;20027;-83
2023/06/21 12:57:42;;;;;;;4.43;4.03;;;;;;;;;;5076423;28;20024;-80
2023/06/21 13:00:10;;;;;;;4.80;3.90;;;;;;;;;;5099485;28;20656;-81
2023/06/21 13:02:36;;;;;;;4.43;4.03;;;;;;;;;;5095575;28;20112;-80
2023/06/21 13:05:02;;;;;;;6.78;5.35;;;;;;;;;;5091032;28;20143;-79
2023/06/21 13:07:28;;;;;;;5.88;4.10;;;;;;;;;;5086497;28;20478;-78
2023/06/21 13:09:54;;;;;;;5.88;4.47;;;;;;;;;;5073607;28;20173;-78
2023/06/21 13:12:20;;;;;;;4.78;3.58;;;;;;;;;;5089300;28;20092;-77
2023/06/21 13:14:46;;;;;;;6.25;3.95;;;;;;;;;;5086716;28;20031;-80
2023/06/21 13:17:14;;;;;;;4.15;3.75;;;;;;;;;;5086917;28;20110;-78
2023/06/21 13:19:40;;;;;;;5.13;4.55;;;;;;;;;;5086508;28;20044;-78
2023/06/21 13:22:06;;;;;;;5.05;3.90;;;;;;;;;;5088895;28;20066;-78
2023/06/21 13:24:32;;;;;;;4.35;3.80;;;;;;;;;;5084650;28;20027;-81
2023/06/21 13:27:01;;;;;;;6.32;3.85;;;;;;;;;;5088054;28;20384;-80
2023/06/21 13:29:27;;;;;;;4.40;4.00;;;;;;;;;;5086069;28;20031;-80
2023/06/21 13:31:54;;;;;;;4.63;3.78;;;;;;;;;;5088626;28;20038;-79
2023/06/21 13:34:20;;;;;;;4.13;3.58;;;;;;;;;;5086208;28;20031;-78
2023/06/21 13:36:46;;;;;;;4.15;3.75;;;;;;;;;;5086753;28;20028;-80
2023/06/21 13:39:14;;;;;;;4.63;4.07;;;;;;;;;;5088899;28;20133;-79
2023/06/21 13:41:40;;;;;;;6.63;3.80;;;;;;;;;;5088697;28;20028;-78
2023/06/21 13:44:06;;;;;;;4.57;4.05;;;;;;;;;;5083184;28;20050;-80
2023/06/21 13:46:32;;;;;;;5.10;4.18;;;;;;;;;;5083882;28;20113;-80
2023/06/21 13:48:58;;;;;;;4.80;3.63;;;;;;;;;;5087349;28;20024;-79
2023/06/21 13:51:24;;;;;;;4.32;3.42;;;;;;;;;;5089100;28;20035;-80
2023/06/21 13:53:50;;;;;;;4.05;3.60;;;;;;;;;;5086871;28;20111;-77
2023/06/21 13:56:16;;;;;;;4.10;3.70;;;;;;;;;;5087278;28;20289;-79
2023/06/21 13:58:45;;;;;;;5.75;3.53;;;;;;;;;;5095531;28;20028;-80
2023/06/21 14:01:11;;;;;;;4.38;3.97;;;;;;;;;;5071908;28;20035;-79
2023/06/21 14:03:37;;;;;;;5.38;3.90;;;;;;;;;;5086205;28;20078;-80
2023/06/21 14:06:03;;;;;;;4.82;3.63;;;;;;;;;;5087401;28;20058;-81
2023/06/21 14:08:29;;;;;;;5.32;3.90;;;;;;;;;;5055725;28;20041;-82
2023/06/21 14:10:55;;;;;;;3.75;3.35;;;;;;;;;;5087941;28;20031;-81
2023/06/21 14:13:22;;;;;;;3.60;3.28;;;;;;;;;;5083844;28;20473;-80
2023/06/21 14:15:48;;;;;;;6.78;3.58;;;;;;;;;;5085053;28;20111;-81
2023/06/21 14:18:14;;;;;;;4.40;3.75;;;;;;;;;;5089244;28;20027;-79
2023/06/21 14:20:40;;;;;;;4.03;3.30;;;;;;;;;;5082723;28;20112;-78
2023/06/21 14:23:06;;;;;;;3.85;3.20;;;;;;;;;;5065999;28;20059;-79
2023/06/21 14:25:33;;;;;;;4.55;3.63;;;;;;;;;;5096230;28;20032;-80
2023/06/21 14:27:59;;;;;;;3.90;3.40;;;;;;;;;;5096889;28;20024;-80
2023/06/21 14:30:25;;;;;;;4.03;3.15;;;;;;;;;;5100477;28;20023;-79
2023/06/21 14:32:51;;;;;;;3.78;3.20;;;;;;;;;;5111393;28;20012;-82
2023/06/21 14:35:18;;;;;;;4.75;3.53;;;;;;;;;;5100774;28;20074;-80
2023/06/21 14:37:47;;;;;;;5.15;3.88;;;;;;;;;;5093461;28;20024;-79
2023/06/21 14:40:13;;;;;;;4.68;3.72;;;;;;;;;;5092243;28;20061;-80
2023/06/21 14:42:39;;;;;;;6.53;3.85;;;;;;;;;;5089930;28;20028;-78
2023/06/21 14:45:06;;;;;;;6.32;3.80;;;;;;;;;;5072156;28;21627;-77